Time;durP1;ratioP1;P1;durP2;ratioP2;P2;SDS_P1;SDS_P2;PMS_P1;PMS_P2;Temp;Humidity;BMP_temperature;BMP_pressure;BME280_temperature;BME280_humidity;BME280_pressure;Samples;Min_cycle;Max_cycle;Signal;HPM_P1;HPM_P2
2022/05/02 00:00:30;;;;;;;14.30;7.07;;;;;;;;;;5049862;28;20079;-69
2022/05/02 00:02:55;;;;;;;10.30;6.97;;;;;;;;;;5049708;28;20451;-70
2022/05/02 00:05:21;;;;;;;12.85;6.72;;;;;;;;;;5049968;28;20057;-68
2022/05/02 00:07:47;;;;;;;9.85;7.22;;;;;;;;;;5049642;28;20508;-67
2022/05/02 00:10:13;;;;;;;9.90;6.78;;;;;;;;;;5049698;28;20036;-67
2022/05/02 00:12:39;;;;;;;11.95;6.63;;;;;;;;;;5049562;28;20288;-67
2022/05/02 00:15:06;;;;;;;8.88;6.53;;;;;;;;;;5049551;28;20029;-67
2022/05/02 00:20:16;;;;;;;10.30;6.57;;;;;;;;;;5053467;28;20163;-67
2022/05/02 00:22:42;;;;;;;11.55;7.28;;;;;;;;;;5053666;28;20111;-69
2022/05/02 00:25:08;;;;;;;11.18;6.75;;;;;;;;;;5053887;28;20055;-67
2022/05/02 00:27:33;;;;;;;10.77;6.20;;;;;;;;;;5053786;28;20393;-68
2022/05/02 00:29:59;;;;;;;9.32;6.43;;;;;;;;;;5053391;28;20033;-67
2022/05/02 00:32:25;;;;;;;8.82;6.13;;;;;;;;;;5053361;28;20095;-67
2022/05/02 00:34:50;;;;;;;9.90;6.07;;;;;;;;;;5053586;28;20192;-67
2022/05/02 00:37:17;;;;;;;9.70;6.10;;;;;;;;;;5053470;28;20045;-67
2022/05/02 00:39:42;;;;;;;9.70;6.20;;;;;;;;;;5053280;28;20029;-67
2022/05/02 00:42:08;;;;;;;8.55;6.13;;;;;;;;;;5053293;28;20047;-68
2022/05/02 00:44:33;;;;;;;9.00;6.40;;;;;;;;;;5053358;28;20101;-67
2022/05/02 00:46:59;;;;;;;8.75;6.43;;;;;;;;;;5053461;28;20036;-67
2022/05/02 00:49:24;;;;;;;9.32;6.32;;;;;;;;;;5053061;28;20389;-67
2022/05/02 00:51:49;;;;;;;9.52;5.93;;;;;;;;;;5053605;28;20411;-68
2022/05/02 00:54:15;;;;;;;8.25;6.20;;;;;;;;;;5053149;28;20021;-67
2022/05/02 00:56:41;;;;;;;7.97;5.68;;;;;;;;;;5053466;28;20048;-67
2022/05/02 00:59:11;;;;;;;7.85;5.82;;;;;;;;;;5052672;28;20029;-68
2022/05/02 01:01:37;;;;;;;7.68;5.70;;;;;;;;;;5053249;28;20418;-67
2022/05/02 01:04:02;;;;;;;10.65;5.43;;;;;;;;;;5052817;28;20017;-67
2022/05/02 01:09:12;;;;;;;9.23;5.30;;;;;;;;;;5052661;28;20028;-67
2022/05/02 01:11:37;;;;;;;8.35;5.20;;;;;;;;;;5053216;28;20021;-67
2022/05/02 01:14:07;;;;;;;9.05;5.28;;;;;;;;;;5052742;28;20013;-68
2022/05/02 01:16:33;;;;;;;9.07;5.20;;;;;;;;;;5052773;28;20455;-66
2022/05/02 01:18:59;;;;;;;8.77;5.30;;;;;;;;;;5052270;28;20492;-68
2022/05/02 01:21:27;;;;;;;9.30;5.32;;;;;;;;;;5052712;28;20136;-67
2022/05/02 01:23:54;;;;;;;7.40;4.90;;;;;;;;;;5052466;28;20043;-67
2022/05/02 01:26:20;;;;;;;11.18;5.60;;;;;;;;;;5052432;28;20041;-68
2022/05/02 01:28:48;;;;;;;7.38;5.20;;;;;;;;;;5052206;28;20047;-68
2022/05/02 01:31:15;;;;;;;8.32;5.20;;;;;;;;;;5050919;28;20021;-67
2022/05/02 01:33:41;;;;;;;7.55;5.20;;;;;;;;;;5052016;28;20460;-68
2022/05/02 01:36:06;;;;;;;7.47;4.93;;;;;;;;;;5052499;28;20025;-67
2022/05/02 01:38:33;;;;;;;6.35;4.88;;;;;;;;;;5052247;28;20082;-67
2022/05/02 01:40:59;;;;;;;7.20;5.10;;;;;;;;;;5051893;28;20056;-67
2022/05/02 01:43:26;;;;;;;7.95;5.00;;;;;;;;;;5052042;28;20025;-68
2022/05/02 01:45:51;;;;;;;7.78;5.10;;;;;;;;;;5051876;28;20032;-67
2022/05/02 01:48:17;;;;;;;6.97;4.80;;;;;;;;;;5051915;28;20033;-67
2022/05/02 01:50:42;;;;;;;6.65;5.00;;;;;;;;;;5052108;28;20017;-68
2022/05/02 01:53:07;;;;;;;7.70;5.00;;;;;;;;;;5052129;28;20033;-68
2022/05/02 01:55:33;;;;;;;7.93;5.07;;;;;;;;;;5052269;28;20052;-67
2022/05/02 01:57:58;;;;;;;7.22;4.80;;;;;;;;;;5051925;28;20053;-68
2022/05/02 02:00:24;;;;;;;6.65;4.90;;;;;;;;;;5051524;28;20896;-67
2022/05/02 02:02:49;;;;;;;7.70;5.05;;;;;;;;;;5051879;28;20431;-68
2022/05/02 02:07:59;;;;;;;8.50;5.10;;;;;;;;;;5051898;28;20048;-66
2022/05/02 02:10:24;;;;;;;7.38;5.13;;;;;;;;;;5051614;28;20392;-67
2022/05/02 02:12:50;;;;;;;7.85;5.03;;;;;;;;;;5051948;28;20555;-68
2022/05/02 02:15:16;;;;;;;6.63;5.25;;;;;;;;;;5051456;28;20107;-68
2022/05/02 02:17:41;;;;;;;8.60;5.40;;;;;;;;;;5051528;28;20482;-67
2022/05/02 02:20:08;;;;;;;6.35;4.95;;;;;;;;;;5051171;28;20131;-67
2022/05/02 02:22:34;;;;;;;6.43;4.88;;;;;;;;;;5051589;28;20353;-69
2022/05/02 02:24:59;;;;;;;6.60;5.00;;;;;;;;;;5051728;28;20338;-68
2022/05/02 02:27:25;;;;;;;8.00;4.90;;;;;;;;;;5051728;28;20506;-67
2022/05/02 02:29:50;;;;;;;9.93;4.95;;;;;;;;;;5050988;28;20240;-68
2022/05/02 02:32:15;;;;;;;6.35;5.00;;;;;;;;;;5051510;28;20029;-67
2022/05/02 02:34:41;;;;;;;7.10;5.13;;;;;;;;;;5051146;28;20025;-68
2022/05/02 02:37:06;;;;;;;8.15;5.05;;;;;;;;;;5051233;28;20025;-67
2022/05/02 02:39:32;;;;;;;6.65;5.30;;;;;;;;;;5050834;28;20407;-67
2022/05/02 02:41:58;;;;;;;6.22;5.07;;;;;;;;;;5050662;28;20037;-67
2022/05/02 02:44:24;;;;;;;8.85;5.25;;;;;;;;;;5051050;28;20033;-68
2022/05/02 02:46:49;;;;;;;6.85;5.30;;;;;;;;;;5051349;28;20087;-66
2022/05/02 02:49:14;;;;;;;7.47;5.28;;;;;;;;;;5051163;28;20036;-67
2022/05/02 02:51:40;;;;;;;6.75;4.90;;;;;;;;;;5051087;28;20040;-67
2022/05/02 02:54:06;;;;;;;7.05;4.75;;;;;;;;;;5050740;28;20029;-68
2022/05/02 02:56:34;;;;;;;9.02;5.53;;;;;;;;;;5051223;28;20033;-67
2022/05/02 02:58:59;;;;;;;7.35;5.22;;;;;;;;;;5032648;28;20394;-68
2022/05/02 03:01:25;;;;;;;7.35;4.70;;;;;;;;;;5050588;28;20039;-67
2022/05/02 03:03:51;;;;;;;6.60;5.22;;;;;;;;;;5050870;28;20029;-67
2022/05/02 03:06:17;;;;;;;7.90;4.85;;;;;;;;;;5050780;28;20025;-67
2022/05/02 03:08:44;;;;;;;7.45;5.13;;;;;;;;;;5050667;28;20058;-66
2022/05/02 03:11:10;;;;;;;7.15;5.20;;;;;;;;;;5050551;28;20108;-66
2022/05/02 03:13:36;;;;;;;6.93;5.30;;;;;;;;;;5050597;28;20105;-67
2022/05/02 03:16:02;;;;;;;6.65;4.95;;;;;;;;;;5050381;28;20025;-65
2022/05/02 03:18:27;;;;;;;7.53;5.15;;;;;;;;;;5050727;28;20028;-66
2022/05/02 03:20:54;;;;;;;9.05;5.38;;;;;;;;;;5050075;28;20025;-66
2022/05/02 03:23:20;;;;;;;7.43;5.25;;;;;;;;;;5050643;28;20028;-67
2022/05/02 03:25:45;;;;;;;6.90;5.30;;;;;;;;;;5050164;28;20060;-67
2022/05/02 03:28:11;;;;;;;9.15;5.20;;;;;;;;;;5050244;28;20491;-68
2022/05/02 03:30:37;;;;;;;5.78;4.80;;;;;;;;;;5049651;28;20029;-67
2022/05/02 03:33:02;;;;;;;7.03;5.07;;;;;;;;;;5050238;28;20071;-68
2022/05/02 03:35:28;;;;;;;7.85;5.10;;;;;;;;;;5050104;28;20035;-67
2022/05/02 03:37:54;;;;;;;7.25;5.35;;;;;;;;;;5050559;28;20116;-68
2022/05/02 03:40:20;;;;;;;10.65;5.13;;;;;;;;;;5049566;28;20115;-67
2022/05/02 03:42:45;;;;;;;7.65;5.05;;;;;;;;;;5049924;28;20045;-67
2022/05/02 03:45:11;;;;;;;7.00;5.15;;;;;;;;;;5049528;28;20097;-66
2022/05/02 03:47:36;;;;;;;7.63;5.32;;;;;;;;;;5050165;28;20032;-67
2022/05/02 03:50:02;;;;;;;7.57;5.13;;;;;;;;;;5049762;28;20451;-68
2022/05/02 03:52:28;;;;;;;8.13;5.60;;;;;;;;;;5049972;28;20025;-67
2022/05/02 03:54:53;;;;;;;8.50;5.47;;;;;;;;;;5049317;28;20029;-67
2022/05/02 03:57:19;;;;;;;7.32;5.38;;;;;;;;;;5049836;28;20029;-67
2022/05/02 03:59:46;;;;;;;8.32;5.13;;;;;;;;;;5049417;28;20040;-67
2022/05/02 04:02:12;;;;;;;7.90;5.40;;;;;;;;;;5049385;28;20040;-66
2022/05/02 04:04:38;;;;;;;8.23;5.25;;;;;;;;;;5049661;28;20033;-67
2022/05/02 04:07:03;;;;;;;7.13;5.30;;;;;;;;;;5049877;28;20032;-67
2022/05/02 04:09:29;;;;;;;6.60;5.30;;;;;;;;;;5049664;28;20024;-67
2022/05/02 04:11:54;;;;;;;6.18;4.60;;;;;;;;;;5049549;28;20047;-65
2022/05/02 04:14:19;;;;;;;8.75;4.78;;;;;;;;;;5049701;28;20029;-66
2022/05/02 04:16:45;;;;;;;6.32;4.75;;;;;;;;;;5049743;28;20029;-67
2022/05/02 04:19:10;;;;;;;5.55;4.55;;;;;;;;;;5049381;28;20048;-69
2022/05/02 04:21:36;;;;;;;6.72;4.85;;;;;;;;;;5049250;28;20388;-66
2022/05/02 04:24:02;;;;;;;6.82;4.90;;;;;;;;;;5049595;28;20075;-66
2022/05/02 04:26:28;;;;;;;6.25;5.00;;;;;;;;;;5049375;28;20036;-68
2022/05/02 04:28:53;;;;;;;6.82;5.10;;;;;;;;;;5049783;28;20043;-68
2022/05/02 04:31:19;;;;;;;6.28;4.65;;;;;;;;;;5049058;28;20029;-67
2022/05/02 04:33:45;;;;;;;6.97;5.15;;;;;;;;;;5049575;28;20021;-67
2022/05/02 04:36:11;;;;;;;8.40;4.90;;;;;;;;;;5049324;28;20044;-68
2022/05/02 04:38:36;;;;;;;8.93;4.88;;;;;;;;;;5049830;28;20025;-67
2022/05/02 04:41:02;;;;;;;8.30;4.97;;;;;;;;;;5048912;28;20045;-65
2022/05/02 04:43:27;;;;;;;8.45;5.10;;;;;;;;;;5049633;28;20100;-67
2022/05/02 04:45:53;;;;;;;10.77;5.15;;;;;;;;;;5049228;28;20033;-67
2022/05/02 04:48:19;;;;;;;9.10;4.95;;;;;;;;;;5049533;28;20461;-67
2022/05/02 04:50:44;;;;;;;7.32;5.15;;;;;;;;;;5049022;28;20052;-67
2022/05/02 04:53:09;;;;;;;8.98;5.25;;;;;;;;;;5049370;28;20017;-67
2022/05/02 04:55:35;;;;;;;7.20;5.03;;;;;;;;;;5049069;28;20108;-67
2022/05/02 04:58:00;;;;;;;8.70;5.28;;;;;;;;;;5049292;28;20025;-67
2022/05/02 05:00:26;;;;;;;7.97;5.18;;;;;;;;;;5048877;28;20196;-67
2022/05/02 05:02:51;;;;;;;7.93;4.90;;;;;;;;;;5049255;28;20028;-67
2022/05/02 05:05:17;;;;;;;7.68;4.93;;;;;;;;;;5051281;28;20029;-67
2022/05/02 05:07:43;;;;;;;7.70;5.10;;;;;;;;;;5053429;28;20480;-67
2022/05/02 05:10:09;;;;;;;6.75;4.78;;;;;;;;;;5052624;28;20028;-67
2022/05/02 05:12:53;;;;;;;7.72;4.78;;;;;;;;;;5052529;28;20031;-66
2022/05/02 05:18:45;;;;;;;8.65;4.97;;;;;;;;;;5052717;28;20078;-66
2022/05/02 05:21:36;;;;;;;7.63;4.38;;;;;;;;;;5052628;28;20017;-66
2022/05/02 05:24:13;;;;;;;6.88;4.55;;;;;;;;;;5052725;28;20029;-66
2022/05/02 05:26:44;;;;;;;7.60;5.10;;;;;;;;;;5052462;28;20029;-68
2022/05/02 05:29:35;;;;;;;10.02;5.00;;;;;;;;;;5052587;28;20085;-66
2022/05/02 05:32:04;;;;;;;;;;;;;;;;;;5035057;28;20021;-67
2022/05/02 05:34:48;;;;;;;6.10;4.70;;;;;;;;;;5052456;28;20430;-67
2022/05/02 05:37:31;;;;;;;11.02;5.35;;;;;;;;;;5052210;28;20508;-67
2022/05/02 05:40:29;;;;;;;11.48;5.65;;;;;;;;;;5052470;28;20033;-67
2022/05/02 05:43:17;;;;;;;8.68;5.13;;;;;;;;;;5052072;28;20467;-67
2022/05/02 05:45:48;;;;;;;10.50;5.20;;;;;;;;;;5051681;28;20025;-67
2022/05/02 05:48:47;;;;;;;7.93;5.13;;;;;;;;;;5052552;28;20544;-66
2022/05/02 05:51:53;;;;;;;9.80;5.57;;;;;;;;;;5028807;28;20037;-66
2022/05/02 05:54:21;;;;;;;9.25;5.50;;;;;;;;;;5009828;28;20038;-66
2022/05/02 05:57:05;;;;;;;9.30;5.40;;;;;;;;;;5045141;28;20035;-67
2022/05/02 05:59:49;;;;;;;9.38;5.65;;;;;;;;;;5052127;28;20315;-67
2022/05/02 06:02:23;;;;;;;7.82;5.25;;;;;;;;;;5051796;28;20017;-68
2022/05/02 06:04:50;;;;;;;10.05;5.65;;;;;;;;;;5051836;28;20025;-67
2022/05/02 06:07:20;;;;;;;8.63;5.80;;;;;;;;;;5051703;28;20039;-66
2022/05/02 06:09:48;;;;;;;11.03;5.53;;;;;;;;;;5052355;28;20098;-66
2022/05/02 06:12:15;;;;;;;11.20;5.90;;;;;;;;;;5051355;28;20469;-67
2022/05/02 06:20:15;;;;;;;9.45;5.63;;;;;;;;;;5051570;28;20121;-67
2022/05/02 06:22:41;;;;;;;12.02;5.88;;;;;;;;;;5050973;28;20041;-66
2022/05/02 06:25:07;;;;;;;7.93;5.45;;;;;;;;;;5051404;28;20025;-67
2022/05/02 06:27:40;;;;;;;10.63;5.80;;;;;;;;;;5051095;28;20039;-67
2022/05/02 06:30:07;;;;;;;9.40;5.80;;;;;;;;;;5051613;28;20545;-67
2022/05/02 06:32:35;;;;;;;8.48;5.75;;;;;;;;;;5051072;28;20040;-66
2022/05/02 06:35:01;;;;;;;9.27;5.47;;;;;;;;;;5051288;28;20024;-66
2022/05/02 06:37:47;;;;;;;12.88;5.57;;;;;;;;;;5050954;28;20024;-67
2022/05/02 06:40:24;;;;;;;13.35;5.60;;;;;;;;;;5051368;28;20068;-66
2022/05/02 06:43:01;;;;;;;9.25;5.80;;;;;;;;;;5050643;28;20041;-67
2022/05/02 06:45:42;;;;;;;8.65;5.10;;;;;;;;;;5051265;28;20523;-67
2022/05/02 06:48:35;;;;;;;9.23;5.03;;;;;;;;;;5050962;28;20021;-66
2022/05/02 06:51:13;;;;;;;7.35;5.00;;;;;;;;;;5050867;28;20045;-67
2022/05/02 06:54:19;;;;;;;9.27;5.45;;;;;;;;;;5050925;28;20032;-67
2022/05/02 06:56:50;;;;;;;9.20;5.47;;;;;;;;;;5050692;28;20060;-68
2022/05/02 06:59:18;;;;;;;;;;;;;;;;;;5051314;28;20021;-65
2022/05/02 07:02:02;;;;;;;10.30;5.25;;;;;;;;;;5050524;28;19919;-67
2022/05/02 07:04:31;;;;;;;8.77;5.80;;;;;;;;;;5050819;28;20044;-68
2022/05/02 07:07:03;;;;;;;11.77;5.90;;;;;;;;;;5050477;28;20025;-67
2022/05/02 07:09:45;;;;;;;8.43;5.38;;;;;;;;;;5050822;28;20032;-68
2022/05/02 07:12:22;;;;;;;8.27;5.10;;;;;;;;;;5050115;28;20443;-67
2022/05/02 07:15:06;;;;;;;11.00;5.13;;;;;;;;;;5050483;28;20037;-67
2022/05/02 07:17:54;;;;;;;8.00;5.03;;;;;;;;;;5050191;28;20025;-68
2022/05/02 07:20:31;;;;;;;11.02;5.68;;;;;;;;;;5050500;28;20045;-72
2022/05/02 07:23:08;;;;;;;7.40;4.80;;;;;;;;;;5050046;28;20108;-68
2022/05/02 07:25:38;;;;;;;6.65;3.85;;;;;;;;;;5050335;28;20021;-69
2022/05/02 07:28:30;;;;;;;7.15;3.58;;;;;;;;;;5050119;28;20037;-66
2022/05/02 07:30:57;;;;;;;5.47;3.47;;;;;;;;;;5050101;28;20064;-68
2022/05/02 07:33:30;;;;;;;5.30;3.35;;;;;;;;;;5049533;28;20051;-68
2022/05/02 07:35:57;;;;;;;5.05;3.60;;;;;;;;;;5050194;28;20025;-66
2022/05/02 07:38:24;;;;;;;6.32;3.60;;;;;;;;;;5049211;28;20032;-69
2022/05/02 07:43:37;;;;;;;9.88;3.70;;;;;;;;;;5050087;28;20566;-69
2022/05/02 07:46:03;;;;;;;8.00;3.65;;;;;;;;;;5049956;28;20117;-70
2022/05/02 07:48:32;;;;;;;7.85;3.47;;;;;;;;;;5049645;28;20028;-70
2022/05/02 07:51:00;;;;;;;5.88;3.42;;;;;;;;;;5049983;28;20024;-66
2022/05/02 07:53:27;;;;;;;9.15;4.10;;;;;;;;;;5049873;28;20021;-67
2022/05/02 07:55:55;;;;;;;9.10;4.90;;;;;;;;;;5050203;28;20025;-67
2022/05/02 07:58:24;;;;;;;7.88;4.60;;;;;;;;;;5049657;28;20059;-66
2022/05/02 08:00:49;;;;;;;7.78;4.90;;;;;;;;;;5049709;28;20316;-69
2022/05/02 08:03:21;;;;;;;10.73;5.30;;;;;;;;;;5049373;28;20029;-66
2022/05/02 08:05:53;;;;;;;7.75;4.80;;;;;;;;;;5049838;28;20072;-66
2022/05/02 08:08:32;;;;;;;6.05;4.60;;;;;;;;;;5049722;28;20120;-72
2022/05/02 08:11:18;;;;;;;9.65;5.05;;;;;;;;;;5050015;28;20029;-68
2022/05/02 08:14:08;;;;;;;8.00;4.63;;;;;;;;;;5049311;28;20149;-70
2022/05/02 08:16:40;;;;;;;8.60;5.25;;;;;;;;;;5050031;28;20037;-67
2022/05/02 08:19:40;;;;;;;7.97;4.93;;;;;;;;;;5049263;28;20029;-68
2022/05/02 08:28:07;;;;;;;7.72;3.35;;;;;;;;;;5049386;28;20059;-66
2022/05/02 08:30:43;;;;;;;6.55;3.80;;;;;;;;;;5049711;28;20495;-68
2022/05/02 08:33:15;;;;;;;6.57;4.15;;;;;;;;;;5049046;28;20039;-68
2022/05/02 08:36:10;;;;;;;5.07;3.60;;;;;;;;;;5049606;28;20036;-67
2022/05/02 08:38:44;;;;;;;7.75;4.00;;;;;;;;;;5048380;28;20083;-72
2022/05/02 08:41:19;;;;;;;6.90;4.20;;;;;;;;;;5053228;28;20136;-67
2022/05/02 08:44:21;;;;;;;9.35;5.35;;;;;;;;;;5053202;28;20104;-66
2022/05/02 08:47:08;;;;;;;6.90;4.30;;;;;;;;;;5053470;28;20056;-68
2022/05/02 08:50:21;;;;;;;7.10;4.18;;;;;;;;;;5053136;28;20035;-66
2022/05/02 08:53:01;;;;;;;7.82;4.30;;;;;;;;;;5015213;28;20053;-65
2022/05/02 08:55:37;;;;;;;4.63;3.63;;;;;;;;;;5053101;28;20028;-68
2022/05/02 08:58:24;;;;;;;7.18;3.47;;;;;;;;;;5053132;28;20029;-67
2022/05/02 09:01:00;;;;;;;5.68;3.53;;;;;;;;;;5053048;28;20040;-67
2022/05/02 09:04:01;;;;;;;7.28;3.63;;;;;;;;;;5052842;28;20213;-66
2022/05/02 09:07:19;;;;;;;6.15;3.20;;;;;;;;;;5053268;28;20032;-67
2022/05/02 09:10:08;;;;;;;7.00;3.28;;;;;;;;;;5029741;28;20493;-68
2022/05/02 09:12:58;;;;;;;5.00;3.15;;;;;;;;;;5052757;28;20021;-68
2022/05/02 09:15:38;;;;;;;5.63;2.92;;;;;;;;;;5053158;28;20493;-67
2022/05/02 09:18:48;;;;;;;5.13;2.60;;;;;;;;;;5052600;28;20085;-68
2022/05/02 09:22:01;;;;;;;4.03;2.47;;;;;;;;;;5010268;28;20521;-66
2022/05/02 09:24:40;;;;;;;6.03;2.28;;;;;;;;;;5046835;28;20439;-66
2022/05/02 09:27:27;;;;;;;4.43;2.20;;;;;;;;;;5052697;28;20047;-67
2022/05/02 09:30:23;;;;;;;4.30;2.63;;;;;;;;;;5052280;28;20025;-67
2022/05/02 09:32:51;;;;;;;7.05;3.05;;;;;;;;;;5052256;28;20029;-66
2022/05/02 09:35:25;;;;;;;6.25;2.20;;;;;;;;;;5052562;28;20476;-65
2022/05/02 09:38:15;;;;;;;5.97;2.58;;;;;;;;;;5052456;28;20025;-65
2022/05/02 09:40:41;;;;;;;6.03;2.28;;;;;;;;;;5052346;28;20025;-66
2022/05/02 09:43:23;;;;;;;3.92;1.98;;;;;;;;;;5052104;28;20477;-66
2022/05/02 09:49:59;;;;;;;3.97;2.20;;;;;;;;;;5009954;28;20441;-67
2022/05/02 09:53:01;;;;;;;5.88;2.25;;;;;;;;;;5006782;28;20504;-66
2022/05/02 09:59:01;;;;;;;6.72;2.40;;;;;;;;;;5052134;28;20128;-67
2022/05/02 10:01:30;;;;;;;3.03;2.20;;;;;;;;;;5051914;28;20029;-67
2022/05/02 10:04:12;;;;;;;6.05;2.30;;;;;;;;;;5051438;28;20049;-66
2022/05/02 10:06:38;;;;;;;4.38;2.20;;;;;;;;;;5051894;28;20484;-66
2022/05/02 10:09:36;;;;;;;7.65;2.72;;;;;;;;;;5051686;28;20021;-67
2022/05/02 10:12:12;;;;;;;5.78;2.40;;;;;;;;;;5050943;28;20029;-67
2022/05/02 10:14:50;;;;;;;3.63;2.10;;;;;;;;;;5051531;28;20021;-65
2022/05/02 10:17:34;;;;;;;5.60;2.50;;;;;;;;;;5051800;28;20354;-68
2022/05/02 10:20:15;;;;;;;3.85;2.10;;;;;;;;;;5051344;28;20025;-67
2022/05/02 10:22:58;;;;;;;3.65;2.40;;;;;;;;;;5051380;28;20043;-66
2022/05/02 10:25:39;;;;;;;3.58;2.22;;;;;;;;;;5051543;28;20029;-67
2022/05/02 10:28:44;;;;;;;3.22;2.30;;;;;;;;;;5051771;28;20257;-66
2022/05/02 10:31:15;;;;;;;4.00;2.20;;;;;;;;;;5051413;28;20132;-66
2022/05/02 10:33:45;;;;;;;6.18;2.50;;;;;;;;;;5051215;28;20043;-67
2022/05/02 10:36:12;;;;;;;4.82;2.42;;;;;;;;;;5051573;28;20040;-67
2022/05/02 10:38:50;;;;;;;3.88;2.33;;;;;;;;;;5051034;28;20035;-67
2022/05/02 10:41:27;;;;;;;5.43;2.40;;;;;;;;;;5051118;28;20037;-67
2022/05/02 10:44:06;;;;;;;3.25;2.28;;;;;;;;;;5050941;28;20029;-67
2022/05/02 10:46:33;;;;;;;4.32;2.38;;;;;;;;;;5051229;28;20511;-66
2022/05/02 10:49:17;;;;;;;3.97;2.72;;;;;;;;;;5051163;28;20082;-66
2022/05/02 10:51:52;;;;;;;4.82;2.40;;;;;;;;;;5051565;28;20025;-66
2022/05/02 10:54:39;;;;;;;6.05;2.80;;;;;;;;;;5050533;28;20326;-67
2022/05/02 10:57:15;;;;;;;4.95;2.53;;;;;;;;;;5050858;28;20036;-67
2022/05/02 10:59:45;;;;;;;4.55;2.50;;;;;;;;;;5050504;28;20043;-66
2022/05/02 11:02:13;;;;;;;4.75;2.90;;;;;;;;;;5050620;28;20017;-66
2022/05/02 11:04:50;;;;;;;4.30;2.65;;;;;;;;;;5050420;28;20025;-67
2022/05/02 11:07:22;;;;;;;6.70;2.50;;;;;;;;;;5051060;28;20039;-67
2022/05/02 11:10:07;;;;;;;6.00;2.53;;;;;;;;;;5050767;28;20028;-67
2022/05/02 11:13:07;;;;;;;5.47;2.92;;;;;;;;;;5050492;28;20017;-69
2022/05/02 11:15:39;;;;;;;;;;;;;;;;;;5048707;28;20465;-66
2022/05/02 11:20:41;;;;;;;4.15;2.65;;;;;;;;;;5050581;28;20273;-67
2022/05/02 11:21:28;;;;;;;4.78;3.08;;;;;;;;;;5050447;28;20029;-66
2022/05/02 11:24:29;;;;;;;3.72;2.88;;;;;;;;;;5046212;28;20041;-67
2022/05/02 11:27:35;;;;;;;4.65;3.20;;;;;;;;;;5050469;28;20032;-67
2022/05/02 11:30:06;;;;;;;8.35;3.70;;;;;;;;;;5035479;28;20048;-67
2022/05/02 11:32:59;;;;;;;5.18;3.60;;;;;;;;;;5050331;28;20028;-66
2022/05/02 11:35:35;;;;;;;4.78;3.42;;;;;;;;;;5050166;28;20381;-67
2022/05/02 11:38:19;;;;;;;7.40;4.22;;;;;;;;;;5050306;28;20017;-66
2022/05/02 11:40:57;;;;;;;6.15;3.53;;;;;;;;;;5049856;28;20085;-67
2022/05/02 11:43:24;;;;;;;5.43;3.55;;;;;;;;;;5050048;28;20107;-66
2022/05/02 11:46:24;;;;;;;5.82;3.72;;;;;;;;;;5049817;28;20291;-69
2022/05/02 11:49:16;;;;;;;6.25;3.33;;;;;;;;;;5049940;28;20123;-70
2022/05/02 11:51:45;;;;;;;5.82;3.25;;;;;;;;;;5049913;28;20361;-67
2022/05/02 11:54:17;;;;;;;5.47;3.50;;;;;;;;;;5050373;28;20409;-67
2022/05/02 11:57:08;;;;;;;5.57;3.78;;;;;;;;;;5049807;28;20029;-66
2022/05/02 11:59:55;;;;;;;5.63;3.85;;;;;;;;;;5028249;28;20051;-66
2022/05/02 12:02:56;;;;;;;7.38;3.50;;;;;;;;;;5049753;28;20044;-68
2022/05/02 12:05:38;;;;;;;6.65;3.80;;;;;;;;;;5049793;28;20063;-66
2022/05/02 12:08:09;;;;;;;4.88;3.22;;;;;;;;;;5050245;28;20027;-66
2022/05/02 12:10:42;;;;;;;4.40;3.00;;;;;;;;;;5049752;28;20029;-66
2022/05/02 12:13:11;;;;;;;7.18;3.13;;;;;;;;;;5049774;28;20031;-66
2022/05/02 12:16:00;;;;;;;4.13;2.80;;;;;;;;;;5049012;28;20021;-66
2022/05/02 12:18:45;;;;;;;4.28;2.67;;;;;;;;;;5031808;28;20123;-67
2022/05/02 12:21:40;;;;;;;5.90;2.88;;;;;;;;;;5049362;28;20493;-67
2022/05/02 12:24:07;;;;;;;6.40;3.20;;;;;;;;;;5044657;28;20083;-67
2022/05/02 12:26:42;;;;;;;8.15;3.45;;;;;;;;;;5049468;28;20469;-67
2022/05/02 12:29:17;;;;;;;9.05;3.55;;;;;;;;;;5049632;28;20151;-67
2022/05/02 12:31:43;;;;;;;6.35;3.75;;;;;;;;;;5049510;28;20045;-71
2022/05/02 12:34:11;;;;;;;5.95;3.55;;;;;;;;;;5049532;28;20552;-68
2022/05/02 12:36:45;;;;;;;5.25;3.53;;;;;;;;;;5049460;28;20021;-67
2022/05/02 12:39:35;;;;;;;4.35;3.58;;;;;;;;;;5031423;28;20064;-68
2022/05/02 12:42:15;;;;;;;4.93;3.20;;;;;;;;;;5049127;28;20060;-67
2022/05/02 12:44:44;;;;;;;4.07;3.05;;;;;;;;;;5049800;28;20061;-66
2022/05/02 12:47:19;;;;;;;5.72;3.10;;;;;;;;;;5031295;28;20374;-66
2022/05/02 12:50:05;;;;;;;5.88;3.50;;;;;;;;;;5049553;28;20033;-70
2022/05/02 12:52:32;;;;;;;5.35;3.47;;;;;;;;;;5049277;28;20060;-68
2022/05/02 12:54:58;;;;;;;6.03;3.38;;;;;;;;;;5049035;28;20504;-67
2022/05/02 13:00:49;;;;;;;4.60;3.53;;;;;;;;;;5006526;28;20041;-72
2022/05/02 13:03:17;;;;;;;5.07;3.25;;;;;;;;;;5047500;28;20140;-67
2022/05/02 13:05:46;;;;;;;5.97;3.55;;;;;;;;;;5049109;28;20037;-67
2022/05/02 13:08:21;;;;;;;6.85;3.70;;;;;;;;;;5049423;28;20033;-68
2022/05/02 13:10:52;;;;;;;5.00;4.20;;;;;;;;;;5048867;28;20033;-68
2022/05/02 13:13:17;;;;;;;4.78;3.83;;;;;;;;;;5048892;28;20029;-73
2022/05/02 13:15:48;;;;;;;6.85;3.90;;;;;;;;;;5048576;28;20024;-66
2022/05/02 13:18:21;;;;;;;5.20;4.10;;;;;;;;;;5049116;28;20050;-68
2022/05/02 13:20:58;;;;;;;5.88;4.03;;;;;;;;;;5048866;28;20170;-67
2022/05/02 13:23:42;;;;;;;7.10;4.30;;;;;;;;;;5049083;28;20293;-69
2022/05/02 13:26:26;;;;;;;6.05;4.30;;;;;;;;;;5050423;28;20484;-71
2022/05/02 13:29:17;;;;;;;6.18;4.72;;;;;;;;;;5052924;28;20051;-66
2022/05/02 13:32:06;;;;;;;7.05;4.40;;;;;;;;;;5052360;28;20060;-67
2022/05/02 13:34:50;;;;;;;6.55;4.40;;;;;;;;;;5051857;28;20382;-67
2022/05/02 13:37:39;;;;;;;6.90;4.50;;;;;;;;;;5052480;28;20029;-66
2022/05/02 13:40:10;;;;;;;6.47;4.25;;;;;;;;;;5045784;28;20458;-67
2022/05/02 13:42:53;;;;;;;6.32;4.38;;;;;;;;;;5052056;28;20512;-68
2022/05/02 13:45:28;;;;;;;5.90;3.67;;;;;;;;;;5052088;28;20082;-68
2022/05/02 13:47:59;;;;;;;7.45;4.40;;;;;;;;;;5052265;28;20029;-66
2022/05/02 13:50:28;;;;;;;7.85;4.00;;;;;;;;;;5052454;28;20044;-68
2022/05/02 13:53:36;;;;;;;8.30;4.13;;;;;;;;;;5052072;28;20029;-68
2022/05/02 13:56:20;;;;;;;5.35;3.50;;;;;;;;;;5051936;28;20033;-69
2022/05/02 13:59:05;;;;;;;6.43;3.60;;;;;;;;;;5051978;28;20025;-67
2022/05/02 14:01:43;;;;;;;5.53;4.00;;;;;;;;;;5051833;28;20025;-67
2022/05/02 14:04:20;;;;;;;7.15;3.65;;;;;;;;;;5051779;28;20025;-67
2022/05/02 14:07:35;;;;;;;6.63;3.53;;;;;;;;;;5051429;28;20036;-67
2022/05/02 14:09:41;;;;;;;5.20;3.80;;;;;;;;;;5037490;28;20048;-67
2022/05/02 14:12:10;;;;;;;6.80;4.32;;;;;;;;;;5051537;28;20071;-68
2022/05/02 14:15:03;;;;;;;5.07;3.47;;;;;;;;;;5051512;28;20079;-67
2022/05/02 14:17:46;;;;;;;9.05;4.22;;;;;;;;;;5051491;28;20108;-68
2022/05/02 14:20:13;;;;;;;8.68;3.60;;;;;;;;;;5051371;28;20033;-68
2022/05/02 14:22:40;;;;;;;10.23;3.90;;;;;;;;;;5051436;28;20033;-68
2022/05/02 14:25:07;;;;;;;6.93;3.90;;;;;;;;;;5051364;28;20108;-68
2022/05/02 14:27:33;;;;;;;12.52;3.78;;;;;;;;;;5051658;28;20024;-68
2022/05/02 14:30:04;;;;;;;6.00;3.95;;;;;;;;;;5051355;28;20036;-67
2022/05/02 14:32:44;;;;;;;9.57;3.92;;;;;;;;;;5051102;28;20033;-69
2022/05/02 14:35:14;;;;;;;7.20;3.97;;;;;;;;;;5051198;28;20032;-66
2022/05/02 14:37:42;;;;;;;5.55;3.88;;;;;;;;;;5050497;28;20039;-68
2022/05/02 14:40:07;;;;;;;8.10;4.30;;;;;;;;;;5051158;28;20108;-68
2022/05/02 14:42:34;;;;;;;8.85;4.43;;;;;;;;;;5050620;28;20477;-71
2022/05/02 14:45:00;;;;;;;10.70;4.20;;;;;;;;;;5051056;28;20041;-69
2022/05/02 14:47:28;;;;;;;7.22;4.25;;;;;;;;;;5051010;28;20020;-68
2022/05/02 14:49:57;;;;;;;6.88;4.10;;;;;;;;;;5051204;28;20036;-70
2022/05/02 14:52:23;;;;;;;6.07;3.90;;;;;;;;;;5050869;28;20027;-68
2022/05/02 14:54:51;;;;;;;6.65;4.00;;;;;;;;;;5050755;28;20056;-67
2022/05/02 14:57:21;;;;;;;6.22;3.90;;;;;;;;;;5050534;28;20082;-68
2022/05/02 14:59:54;;;;;;;8.07;3.65;;;;;;;;;;5050559;28;20449;-67
2022/05/02 15:02:23;;;;;;;6.72;3.70;;;;;;;;;;5050721;28;20033;-68
2022/05/02 15:04:52;;;;;;;6.60;3.40;;;;;;;;;;5050867;28;20021;-66
2022/05/02 15:07:21;;;;;;;7.18;3.97;;;;;;;;;;5050585;28;20064;-66
2022/05/02 15:10:15;;;;;;;7.57;4.07;;;;;;;;;;5050845;28;20083;-71
2022/05/02 15:12:55;;;;;;;7.85;3.80;;;;;;;;;;5050741;28;20104;-67
2022/05/02 15:15:48;;;;;;;6.90;3.80;;;;;;;;;;5050108;28;20032;-67
2022/05/02 15:18:24;;;;;;;9.88;3.17;;;;;;;;;;5050592;28;20069;-69
2022/05/02 15:20:56;;;;;;;8.38;3.70;;;;;;;;;;5050268;28;20074;-67
2022/05/02 15:23:25;;;;;;;7.63;3.70;;;;;;;;;;5050428;28;20052;-71
2022/05/02 15:25:56;;;;;;;8.32;3.55;;;;;;;;;;5050312;28;20098;-70
2022/05/02 15:36:47;;;;;;;5.20;3.75;;;;;;;;;;5050332;28;20635;-69
2022/05/02 15:39:18;;;;;;;6.47;3.92;;;;;;;;;;5050199;28;20630;-67
2022/05/02 15:41:46;;;;;;;6.72;3.72;;;;;;;;;;5050037;28;20048;-67
2022/05/02 15:44:19;;;;;;;9.85;3.97;;;;;;;;;;5049921;28;20029;-74
2022/05/02 15:46:48;;;;;;;7.65;4.30;;;;;;;;;;5050032;28;20017;-70
2022/05/02 15:49:14;;;;;;;8.68;4.22;;;;;;;;;;5048865;28;20603;-70
2022/05/02 15:51:47;;;;;;;7.25;3.72;;;;;;;;;;5050421;28;20100;-69
2022/05/02 15:54:59;;;;;;;9.88;3.45;;;;;;;;;;5050084;28;20060;-67
2022/05/02 15:57:29;;;;;;;6.82;4.00;;;;;;;;;;5049888;28;20036;-71
2022/05/02 16:00:14;;;;;;;7.53;3.85;;;;;;;;;;5049925;28;20025;-66
2022/05/02 16:03:03;;;;;;;6.72;3.80;;;;;;;;;;5049900;28;20153;-67
2022/05/02 16:05:30;;;;;;;6.70;3.83;;;;;;;;;;5038857;28;20036;-68
2022/05/02 16:10:43;;;;;;;6.32;3.83;;;;;;;;;;5050020;28;20090;-68